createdAt,value
2018-05-23T00:00:26.351Z,96406.09
2018-05-23T00:02:55.219Z,96405.79
2018-05-23T00:05:21.166Z,96409.11
2018-05-23T00:07:50.508Z,96411.56
2018-05-23T00:10:16.431Z,96415.79
2018-05-23T00:12:45.477Z,96415.80
2018-05-23T00:15:11.357Z,96418.44
2018-05-23T00:17:40.361Z,96419.18
2018-05-23T00:20:06.259Z,96415.94
2018-05-23T00:22:32.166Z,96426.66
2018-05-23T00:24:58.104Z,96426.00
2018-05-23T00:27:24.007Z,96427.24
2018-05-23T00:29:51.200Z,96431.38
2018-05-23T00:32:17.154Z,96426.28
2018-05-23T00:34:46.610Z,96425.09
2018-05-23T00:37:19.713Z,96428.60
2018-05-23T00:39:45.652Z,96430.69
2018-05-23T00:42:11.561Z,96431.72
2018-05-23T00:44:37.464Z,96425.34
2018-05-23T00:47:03.379Z,96432.88
2018-05-23T00:49:29.819Z,96423.22
2018-05-23T00:51:55.838Z,96423.73
2018-05-23T00:54:28.559Z,96419.30
2018-05-23T00:56:54.514Z,96423.09
2018-05-23T00:59:20.411Z,96421.36
2018-05-23T01:01:46.328Z,96417.09
2018-05-23T01:04:12.199Z,96426.90
2018-05-23T01:06:38.097Z,96418.31
2018-05-23T01:09:04.037Z,96423.55
2018-05-23T01:11:31.605Z,96422.90
2018-05-23T01:13:57.495Z,96420.97
2018-05-23T01:16:26.723Z,96411.97
2018-05-23T01:18:54.288Z,96422.15
2018-05-23T01:21:20.987Z,96420.87
2018-05-23T01:23:46.895Z,96419.00
2018-05-23T01:26:16.104Z,96425.16
2018-05-23T01:28:42.028Z,96428.35
2018-05-23T01:31:11.845Z,96425.95
2018-05-23T01:33:37.852Z,96427.76
2018-05-23T01:36:03.809Z,96421.00
2018-05-23T01:38:29.755Z,96423.42
2018-05-23T01:40:55.667Z,96418.92
2018-05-23T01:43:21.620Z,96422.66
2018-05-23T01:45:47.557Z,96427.95
2018-05-23T01:48:16.563Z,96430.10
2018-05-23T01:50:42.511Z,96425.30
2018-05-23T01:53:11.337Z,96426.77
2018-05-23T01:55:37.281Z,96425.45
2018-05-23T01:58:06.530Z,96425.58
2018-05-23T02:00:32.491Z,96427.16
2018-05-23T02:03:01.619Z,96433.50
2018-05-23T02:05:27.513Z,96433.37
2018-05-23T02:07:57.087Z,96435.55
2018-05-23T02:10:23.003Z,96427.41
2018-05-23T02:12:48.957Z,96422.89
2018-05-23T02:15:14.879Z,96432.81
2018-05-23T02:17:40.818Z,96430.23
2018-05-23T02:20:06.887Z,96427.42
2018-05-23T02:22:32.839Z,96429.50
2018-05-23T02:25:02.638Z,96428.80
2018-05-23T02:27:28.598Z,96431.89
2018-05-23T02:29:56.859Z,96432.27
2018-05-23T02:32:22.804Z,96434.31
2018-05-23T02:34:52.055Z,96434.38
2018-05-23T02:37:17.953Z,96429.16
2018-05-23T02:39:46.446Z,96435.14
2018-05-23T02:42:12.356Z,96427.53
2018-05-23T02:44:42.232Z,96432.12
2018-05-23T02:47:08.173Z,96427.22
2018-05-23T02:49:34.062Z,96429.34
2018-05-23T02:52:00.011Z,96422.70
2018-05-23T02:54:25.941Z,96431.34
2018-05-23T02:56:52.717Z,96432.91
2018-05-23T02:59:18.683Z,96431.48
2018-05-23T03:01:47.908Z,96433.50
2018-05-23T03:04:13.849Z,96433.64
2018-05-23T03:06:41.696Z,96432.06
2018-05-23T03:09:07.652Z,96433.99
2018-05-23T03:11:36.587Z,96436.23
2018-05-23T03:14:02.585Z,96430.03
2018-05-23T03:16:31.700Z,96437.52
2018-05-23T03:18:57.600Z,96437.98
2018-05-23T03:21:25.835Z,96439.44
2018-05-23T03:23:51.771Z,96441.83
2018-05-23T03:26:17.723Z,96441.86
2018-05-23T03:28:43.659Z,96439.13
2018-05-23T03:31:09.597Z,96446.26
2018-05-23T03:33:38.783Z,96437.54
2018-05-23T03:36:04.739Z,96436.11
2018-05-23T03:38:33.870Z,96443.59
2018-05-23T03:40:59.815Z,96435.06
2018-05-23T03:43:28.809Z,96436.38
2018-05-23T03:45:54.731Z,96434.22
2018-05-23T03:48:23.706Z,96439.74
2018-05-23T03:50:49.605Z,96443.45
2018-05-23T03:53:16.496Z,96436.84
2018-05-23T03:55:42.416Z,96441.79
2018-05-23T03:58:11.299Z,96438.12
2018-05-23T04:00:49.707Z,96439.44
2018-05-23T04:03:27.871Z,96443.80
2018-05-23T04:06:06.141Z,96435.05
2018-05-23T04:08:32.062Z,96439.48
2018-05-23T04:10:57.977Z,96437.36
2018-05-23T04:13:23.923Z,96436.81
2018-05-23T04:15:49.895Z,96438.81
2018-05-23T04:18:15.786Z,96440.23
2018-05-23T04:20:41.720Z,96438.68
2018-05-23T04:23:07.600Z,96440.98
2018-05-23T04:25:33.519Z,96443.13
2018-05-23T04:27:59.432Z,96446.45
2018-05-23T04:30:25.349Z,96448.51
2018-05-23T04:32:51.258Z,96445.42
2018-05-23T04:35:17.190Z,96449.28
2018-05-23T04:37:43.117Z,96450.59
2018-05-23T04:40:09.041Z,96450.14
2018-05-23T04:42:34.991Z,96447.30
2018-05-23T04:45:00.965Z,96446.11
2018-05-23T04:47:26.924Z,96450.43
2018-05-23T04:49:52.862Z,96456.02
2018-05-23T04:52:18.755Z,96463.66
2018-05-23T04:54:44.701Z,96468.91
2018-05-23T04:57:10.637Z,96474.14
2018-05-23T04:59:36.562Z,96478.97
2018-05-23T05:02:02.956Z,96491.34
2018-05-23T05:04:28.937Z,96496.14
2018-05-23T05:06:54.883Z,96500.66
2018-05-23T05:09:20.829Z,96511.19
2018-05-23T05:11:46.729Z,96517.83
2018-05-23T05:14:12.691Z,96525.05
2018-05-23T05:16:38.602Z,96526.05
2018-05-23T05:19:04.550Z,96533.87
2018-05-23T05:21:30.429Z,96531.60
2018-05-23T05:23:57.156Z,96542.14
2018-05-23T05:26:23.084Z,96546.73
2018-05-23T05:28:48.987Z,96557.04
2018-05-23T05:31:14.923Z,96559.39
2018-05-23T05:33:44.452Z,96557.16
2018-05-23T05:36:10.321Z,96565.25
2018-05-23T05:38:39.418Z,96571.43
2018-05-23T05:41:05.361Z,96572.20
2018-05-23T05:43:32.611Z,96570.16
2018-05-23T05:45:58.504Z,96574.75
2018-05-23T05:48:27.641Z,96574.13
2018-05-23T05:50:53.589Z,96572.35
2018-05-23T05:53:19.519Z,96577.29
2018-05-23T05:55:45.445Z,96583.12
2018-05-23T05:58:11.370Z,96576.55
2018-05-23T06:00:40.370Z,96581.30
2018-05-23T06:03:06.293Z,96588.30
2018-05-23T06:05:33.675Z,96589.34
2018-05-23T06:07:59.585Z,96587.09
2018-05-23T06:10:28.610Z,96582.37
2018-05-23T06:12:54.531Z,96589.39
2018-05-23T06:15:23.633Z,96595.92
2018-05-23T06:17:49.535Z,96602.88
2018-05-23T06:20:17.612Z,96607.44
2018-05-23T06:22:43.522Z,96606.63
2018-05-23T06:25:12.361Z,96615.11
2018-05-23T06:27:38.276Z,96615.25
2018-05-23T06:30:04.238Z,96618.50
2018-05-23T06:32:30.195Z,96620.81
2018-05-23T06:34:56.120Z,96621.73
2018-05-23T06:37:24.453Z,96627.95
2018-05-23T06:39:50.343Z,96624.16
2018-05-23T06:42:19.385Z,96619.53
2018-05-23T06:44:45.330Z,96621.49
2018-05-23T06:47:14.705Z,96626.03
2018-05-23T06:49:40.577Z,96629.45
2018-05-23T06:52:09.892Z,96633.30
2018-05-23T06:54:35.775Z,96631.69
2018-05-23T06:57:04.939Z,96641.13
2018-05-23T06:59:30.858Z,96642.60
2018-05-23T07:01:58.302Z,96643.73
2018-05-23T07:04:24.250Z,96643.16
2018-05-23T07:06:50.145Z,96651.28
2018-05-23T07:09:16.123Z,96658.04
2018-05-23T07:11:42.055Z,96654.31
2018-05-23T07:14:10.085Z,96664.98
2018-05-23T07:16:36.050Z,96670.05
2018-05-23T07:19:05.410Z,96674.61
2018-05-23T07:21:31.324Z,96667.11
2018-05-23T07:24:00.625Z,96673.93
2018-05-23T07:26:26.529Z,96673.88
2018-05-23T07:28:54.433Z,96669.39
2018-05-23T07:31:20.330Z,96669.12
2018-05-23T07:33:50.072Z,96668.22
2018-05-23T07:36:15.995Z,96675.24
2018-05-23T07:38:43.187Z,96670.73
2018-05-23T07:41:09.114Z,96671.34
2018-05-23T07:43:35.051Z,96672.55
2018-05-23T07:46:00.990Z,96681.81
2018-05-23T07:48:26.921Z,96683.13
2018-05-23T07:50:54.766Z,96681.12
2018-05-23T07:53:20.693Z,96687.28
2018-05-23T07:55:49.603Z,96689.77
2018-05-23T07:58:15.501Z,96679.07
2018-05-23T08:00:45.101Z,96689.34
2018-05-23T08:03:11.021Z,96697.66
2018-05-23T08:05:39.434Z,96704.20
2018-05-23T08:08:05.402Z,96704.61
2018-05-23T08:10:34.354Z,96703.64
2018-05-23T08:13:00.300Z,96706.06
2018-05-23T08:15:29.845Z,96706.73
2018-05-23T08:17:55.798Z,96708.91
2018-05-23T08:20:23.885Z,96709.63
2018-05-23T08:22:49.799Z,96699.23
2018-05-23T08:25:15.739Z,96703.70
2018-05-23T08:27:41.693Z,96712.25
2018-05-23T08:30:08.637Z,96711.36
2018-05-23T08:32:35.031Z,96719.34
2018-05-23T08:35:00.934Z,96719.84
2018-05-23T08:37:30.259Z,96719.02
2018-05-23T08:39:56.145Z,96721.69
2018-05-23T08:42:25.528Z,96721.05
2018-05-23T08:44:51.415Z,96724.24
2018-05-23T08:47:20.948Z,96723.73
2018-05-23T08:49:46.822Z,96726.83
2018-05-23T08:52:13.900Z,96722.53
2018-05-23T08:54:39.835Z,96722.06
2018-05-23T08:57:05.756Z,96729.64
2018-05-23T08:59:31.739Z,96729.22
2018-05-23T09:01:57.663Z,96730.15
2018-05-23T09:04:27.064Z,96740.62
2018-05-23T09:06:52.983Z,96741.59
2018-05-23T09:09:21.941Z,96731.05
2018-05-23T09:11:47.916Z,96736.57
2018-05-23T09:14:14.740Z,96733.81
2018-05-23T09:16:40.689Z,96731.05
2018-05-23T09:19:09.410Z,96735.26
2018-05-23T09:21:35.334Z,96740.30
2018-05-23T09:24:04.311Z,96742.56
2018-05-23T09:26:30.255Z,96738.94
2018-05-23T09:28:59.098Z,96738.91
2018-05-23T09:31:25.016Z,96739.22
2018-05-23T09:33:50.938Z,96735.17
2018-05-23T09:36:16.837Z,96742.22
2018-05-23T09:38:42.767Z,96748.33
2018-05-23T09:41:12.468Z,96747.65
2018-05-23T09:43:38.393Z,96741.87
2018-05-23T09:46:05.940Z,96741.19
2018-05-23T09:48:31.861Z,96744.50
2018-05-23T09:51:01.127Z,96736.38
2018-05-23T09:53:27.037Z,96741.40
2018-05-23T09:55:54.965Z,96741.55
2018-05-23T09:58:20.924Z,96745.23
2018-05-23T10:00:50.296Z,96741.94
2018-05-23T10:03:16.216Z,96738.78
2018-05-23T10:05:45.450Z,96740.34
2018-05-23T10:08:11.345Z,96740.86
2018-05-23T10:10:37.372Z,96739.92
2018-05-23T10:13:03.297Z,96735.44
2018-05-23T10:15:29.194Z,96733.36
2018-05-23T10:17:56.230Z,96746.55
2018-05-23T10:20:22.719Z,96739.25
2018-05-23T10:22:55.726Z,96741.78
2018-05-23T10:25:21.833Z,96743.88
2018-05-23T10:27:48.094Z,96745.77
2018-05-23T10:30:14.022Z,96742.89
2018-05-23T10:32:41.006Z,96742.97
2018-05-23T10:35:06.945Z,96738.50
2018-05-23T10:37:35.229Z,96734.87
2018-05-23T10:40:01.163Z,96735.69
2018-05-23T10:42:30.590Z,96740.81
2018-05-23T10:44:56.519Z,96743.48
2018-05-23T10:47:22.405Z,96739.66
2018-05-23T10:49:48.331Z,96742.22
2018-05-23T10:52:14.241Z,96728.82
2018-05-23T10:54:41.325Z,96732.95
2018-05-23T10:57:07.300Z,96729.47
2018-05-23T10:59:36.133Z,96734.23
2018-05-23T11:02:02.094Z,96728.70
2018-05-23T11:04:31.184Z,96732.02
2018-05-23T11:06:57.131Z,96732.25
2018-05-23T11:09:25.711Z,96732.14
2018-05-23T11:11:51.647Z,96731.53
2018-05-23T11:14:21.027Z,96731.55
2018-05-23T11:16:46.989Z,96730.00
2018-05-23T11:19:14.979Z,96729.20
2018-05-23T11:21:40.975Z,96723.58
2018-05-23T11:24:06.905Z,96725.80
2018-05-23T11:26:32.826Z,96726.61
2018-05-23T11:28:58.787Z,96725.32
2018-05-23T11:31:28.541Z,96721.67
2018-05-23T11:33:54.503Z,96720.98
2018-05-23T11:36:21.965Z,96720.27
2018-05-23T11:38:47.926Z,96715.27
2018-05-23T11:41:16.884Z,96717.38
2018-05-23T11:43:42.857Z,96719.47
2018-05-23T11:46:12.084Z,96708.39
2018-05-23T11:48:37.988Z,96701.30
2018-05-23T11:51:07.258Z,96698.16
2018-05-23T11:53:33.228Z,96693.63
2018-05-23T11:56:00.695Z,96691.02
2018-05-23T11:58:26.640Z,96691.16
2018-05-23T12:00:52.802Z,96691.55
2018-05-23T12:03:18.752Z,96684.03
2018-05-23T12:05:44.678Z,96679.23
2018-05-23T12:08:12.545Z,96673.03
2018-05-23T12:10:38.680Z,96675.16
2018-05-23T12:13:08.417Z,96667.63
2018-05-23T12:15:34.476Z,96669.22
2018-05-23T12:18:01.612Z,96669.00
2018-05-23T12:20:27.561Z,96664.02
2018-05-23T12:22:56.791Z,96658.31
2018-05-23T12:25:22.683Z,96648.44
2018-05-23T12:27:51.880Z,96647.95
2018-05-23T12:30:17.823Z,96645.84
2018-05-23T12:32:46.840Z,96648.86
2018-05-23T12:35:12.762Z,96648.05
2018-05-23T12:37:38.656Z,96644.00
2018-05-23T12:40:04.626Z,96644.72
2018-05-23T12:42:30.504Z,96636.80
2018-05-23T12:44:58.095Z,96640.34
2018-05-23T12:47:24.005Z,96642.69
2018-05-23T12:49:52.459Z,96636.73
2018-05-23T12:52:18.410Z,96634.27
2018-05-23T12:54:47.967Z,96629.72
2018-05-23T12:57:13.884Z,96624.41
2018-05-23T12:59:43.071Z,96628.29
2018-05-23T13:02:08.988Z,96627.51
2018-05-23T13:04:36.126Z,96631.81
2018-05-23T13:07:02.122Z,96624.39
2018-05-23T13:09:31.031Z,96631.06
2018-05-23T13:11:56.990Z,96626.16
2018-05-23T13:14:22.936Z,96627.78
2018-05-23T13:16:48.828Z,96625.81
2018-05-23T13:19:14.725Z,96621.22
2018-05-23T13:21:44.378Z,96623.78
2018-05-23T13:24:10.355Z,96625.37
2018-05-23T13:26:37.198Z,96625.70
2018-05-23T13:29:03.078Z,96624.77
2018-05-23T13:31:31.833Z,96622.09
2018-05-23T13:33:57.767Z,96628.52
2018-05-23T13:36:30.546Z,96629.79
2018-05-23T13:38:56.588Z,96623.51
2018-05-23T13:41:22.420Z,96613.80
2018-05-23T13:43:48.334Z,96621.06
2018-05-23T13:46:16.191Z,96620.57
2018-05-23T13:48:42.119Z,96618.42
2018-05-23T13:51:08.092Z,96614.85
2018-05-23T13:53:34.051Z,96616.24
2018-05-23T13:55:59.969Z,96613.67
2018-05-23T13:58:29.548Z,96612.73
2018-05-23T14:00:55.469Z,96608.13
2018-05-23T14:03:24.575Z,96610.08
2018-05-23T14:05:50.536Z,96603.81
2018-05-23T14:08:18.280Z,96605.62
2018-05-23T14:10:44.174Z,96605.42
2018-05-23T14:13:13.331Z,96598.91
2018-05-23T14:15:39.261Z,96595.50
2018-05-23T14:18:08.447Z,96595.95
2018-05-23T14:20:34.383Z,96589.42
2018-05-23T14:23:01.647Z,96581.91
2018-05-23T14:25:27.587Z,96579.95
2018-05-23T14:27:53.491Z,96582.30
2018-05-23T14:30:19.456Z,96578.79
2018-05-23T14:32:45.336Z,96576.41
2018-05-23T14:35:13.527Z,96578.58
2018-05-23T14:37:39.469Z,96576.37
2018-05-23T14:40:08.583Z,96575.64
2018-05-23T14:42:34.504Z,96571.55
2018-05-23T14:45:03.758Z,96569.97
2018-05-23T14:47:29.677Z,96570.63
2018-05-23T14:49:59.015Z,96565.55
2018-05-23T14:52:24.945Z,96566.95
2018-05-23T14:54:52.165Z,96566.87
2018-05-23T14:57:18.095Z,96570.06
2018-05-23T14:59:47.786Z,96560.70
2018-05-23T15:02:13.719Z,96560.70
2018-05-23T15:04:39.656Z,96559.55
2018-05-23T15:07:05.591Z,96562.22
2018-05-23T15:09:31.569Z,96555.61
2018-05-23T15:11:58.871Z,96557.05
2018-05-23T15:14:24.877Z,96557.38
2018-05-23T15:16:54.245Z,96567.80
2018-05-23T15:19:20.139Z,96564.59
2018-05-23T15:21:48.005Z,96563.45
2018-05-23T15:24:13.973Z,96568.05
2018-05-23T15:26:43.743Z,96565.55
2018-05-23T15:29:09.672Z,96561.22
2018-05-23T15:31:37.664Z,96565.12
2018-05-23T15:34:03.608Z,96556.48
2018-05-23T15:36:32.762Z,96554.53
2018-05-23T15:38:58.712Z,96553.00
2018-05-23T15:41:24.615Z,96560.99
2018-05-23T15:43:50.563Z,96555.83
2018-05-23T15:46:16.439Z,96560.16
2018-05-23T15:48:44.060Z,96564.70
2018-05-23T15:51:10.049Z,96555.64
2018-05-23T15:53:39.307Z,96559.27
2018-05-23T15:56:05.211Z,96557.63
2018-05-23T15:58:34.820Z,96559.02
2018-05-23T16:01:00.751Z,96559.38
2018-05-23T16:03:28.063Z,96560.19
2018-05-23T16:05:53.983Z,96562.40
2018-05-23T16:08:22.987Z,96563.61
2018-05-23T16:10:48.895Z,96560.91
2018-05-23T16:13:18.197Z,96564.66
2018-05-23T16:15:45.628Z,96562.23
2018-05-23T16:18:19.595Z,96555.31
2018-05-23T16:20:46.010Z,96555.25
2018-05-23T16:23:14.091Z,96557.81
2018-05-23T16:25:40.007Z,96560.66
2018-05-23T16:28:12.981Z,96557.57
2018-05-23T16:30:46.555Z,96554.02
2018-05-23T16:33:13.328Z,96553.38
2018-05-23T16:35:39.241Z,96553.08
2018-05-23T16:38:11.945Z,96559.95
2018-05-23T16:40:39.124Z,96557.44
2018-05-23T16:43:05.402Z,96567.38
2018-05-23T16:45:31.285Z,96566.14
2018-05-23T16:47:57.334Z,96571.55
2018-05-23T16:50:23.291Z,96566.82
2018-05-23T16:52:49.198Z,96566.13
2018-05-23T16:55:15.124Z,96577.75
2018-05-23T16:57:40.992Z,96573.09
2018-05-23T17:00:06.887Z,96572.95
2018-05-23T17:02:32.838Z,96571.36
2018-05-23T17:04:58.715Z,96573.03
2018-05-23T17:07:24.632Z,96574.39
2018-05-23T17:09:50.583Z,96580.06
2018-05-23T17:12:16.482Z,96584.75
2018-05-23T17:14:43.680Z,96585.72
2018-05-23T17:17:09.717Z,96586.98
2018-05-23T17:19:35.637Z,96584.89
2018-05-23T17:22:01.540Z,96578.09
2018-05-23T17:24:27.657Z,96576.87
2018-05-23T17:26:53.775Z,96579.65
2018-05-23T17:29:19.701Z,96566.36
2018-05-23T17:31:46.437Z,96571.37
2018-05-23T17:34:12.396Z,96564.32
2018-05-23T17:36:38.340Z,96570.88
2018-05-23T17:39:05.167Z,96573.23
2018-05-23T17:41:31.106Z,96584.22
2018-05-23T17:43:57.069Z,96581.50
2018-05-23T17:46:22.984Z,96583.78
2018-05-23T17:48:49.337Z,96588.34
2018-05-23T17:51:15.235Z,96595.47
2018-05-23T17:53:44.526Z,96597.58
2018-05-23T17:56:10.479Z,96596.52
2018-05-23T17:58:38.718Z,96592.53
2018-05-23T18:01:04.642Z,96595.75
2018-05-23T18:03:34.190Z,96595.49
2018-05-23T18:06:00.317Z,96591.34
2018-05-23T18:08:26.338Z,96587.62
2018-05-23T18:10:52.278Z,96592.19
2018-05-23T18:13:18.233Z,96596.30
2018-05-23T18:15:46.538Z,96599.80
2018-05-23T18:18:12.655Z,96598.08
2018-05-23T18:20:39.900Z,96596.39
2018-05-23T18:23:05.811Z,96601.96
2018-05-23T18:25:35.208Z,96603.80
2018-05-23T18:28:01.105Z,96620.40
2018-05-23T18:30:29.344Z,96625.06
2018-05-23T18:32:55.415Z,96629.07
2018-05-23T18:35:24.568Z,96631.31
2018-05-23T18:37:50.754Z,96635.84
2018-05-23T18:40:20.503Z,96636.84
2018-05-23T18:42:46.395Z,96644.03
2018-05-23T18:45:12.301Z,96649.59
2018-05-23T18:47:38.229Z,96644.42
2018-05-23T18:50:04.177Z,96637.30
2018-05-23T18:52:30.397Z,96639.95
2018-05-23T18:54:56.340Z,96639.58
2018-05-23T18:57:25.567Z,96643.19
2018-05-23T18:59:52.428Z,96642.82
2018-05-23T19:02:21.462Z,96643.01
2018-05-23T19:04:47.336Z,96648.08
2018-05-23T19:07:15.023Z,96646.41
2018-05-23T19:09:40.947Z,96652.89
2018-05-23T19:12:10.335Z,96655.20
2018-05-23T19:14:36.424Z,96659.83
2018-05-23T19:17:03.988Z,96663.98
2018-05-23T19:19:29.998Z,96669.35
2018-05-23T19:21:55.883Z,96669.50
2018-05-23T19:24:21.842Z,96672.09
2018-05-23T19:26:47.848Z,96675.20
2018-05-23T19:29:15.844Z,96676.75
2018-05-23T19:31:42.484Z,96672.67
2018-05-23T19:34:12.129Z,96673.88
2018-05-23T19:36:38.049Z,96673.82
2018-05-23T19:39:08.122Z,96675.16
2018-05-23T19:41:34.076Z,96671.79
2018-05-23T19:44:00.093Z,96675.25
2018-05-23T19:46:26.052Z,96674.12
2018-05-23T19:48:55.566Z,96668.47
2018-05-23T19:51:21.481Z,96669.46
2018-05-23T19:53:50.478Z,96676.15
2018-05-23T19:56:16.461Z,96669.05
2018-05-23T19:58:42.547Z,96662.97
2018-05-23T20:01:09.330Z,96667.66
2018-05-23T20:03:35.250Z,96663.22
2018-05-23T20:06:01.204Z,96660.89
2018-05-23T20:08:27.150Z,96664.20
2018-05-23T20:10:56.663Z,96665.84
2018-05-23T20:13:22.584Z,96662.37
2018-05-23T20:15:52.166Z,96665.75
2018-05-23T20:18:18.150Z,96661.47
2018-05-23T20:20:46.125Z,96658.29
2018-05-23T20:23:13.375Z,96657.30
2018-05-23T20:25:40.355Z,96655.11
2018-05-23T20:28:06.262Z,96656.92
2018-05-23T20:30:35.210Z,96661.38
2018-05-23T20:33:01.212Z,96659.38
2018-05-23T20:35:27.179Z,96661.09
2018-05-23T20:37:53.304Z,96665.13
2018-05-23T20:40:19.220Z,96669.08
2018-05-23T20:42:46.298Z,96671.65
2018-05-23T20:45:12.251Z,96664.41
2018-05-23T20:47:41.024Z,96665.52
2018-05-23T20:50:07.041Z,96667.69
2018-05-23T20:52:36.378Z,96671.59
2018-05-23T20:55:02.303Z,96665.62
2018-05-23T20:57:30.488Z,96675.51
2018-05-23T20:59:56.393Z,96673.68
2018-05-23T21:02:25.368Z,96674.06
2018-05-23T21:04:51.300Z,96676.57
2018-05-23T21:07:21.108Z,96679.72
2018-05-23T21:09:47.033Z,96686.86
2018-05-23T21:12:13.023Z,96682.06
2018-05-23T21:14:39.246Z,96681.09
2018-05-23T21:17:05.313Z,96679.77
2018-05-23T21:19:32.219Z,96676.33
2018-05-23T21:21:58.088Z,96681.91
2018-05-23T21:24:27.634Z,96684.32
2018-05-23T21:26:54.114Z,96685.59
2018-05-23T21:29:21.788Z,96693.70
2018-05-23T21:31:47.742Z,96690.98
2018-05-23T21:34:19.417Z,96693.06
2018-05-23T21:36:45.425Z,96689.12
2018-05-23T21:39:11.551Z,96692.94
2018-05-23T21:41:37.509Z,96695.91
2018-05-23T21:44:07.684Z,96691.05
2018-05-23T21:46:33.604Z,96689.47
2018-05-23T21:48:59.566Z,96690.35
2018-05-23T21:51:25.450Z,96692.51
2018-05-23T21:53:51.780Z,96684.24
2018-05-23T21:56:17.685Z,96682.42
2018-05-23T21:58:43.613Z,96686.15
2018-05-23T22:01:13.356Z,96680.27
2018-05-23T22:03:39.293Z,96682.34
2018-05-23T22:06:06.601Z,96682.53
2018-05-23T22:08:32.478Z,96685.85
2018-05-23T22:11:01.829Z,96686.89
2018-05-23T22:13:27.734Z,96691.14
2018-05-23T22:15:55.733Z,96688.40
2018-05-23T22:18:22.036Z,96687.31
2018-05-23T22:20:51.419Z,96687.31
2018-05-23T22:23:17.459Z,96683.72
2018-05-23T22:25:44.475Z,96679.62
2018-05-23T22:28:10.441Z,96682.88
2018-05-23T22:30:36.612Z,96682.98
2018-05-23T22:33:02.549Z,96686.44
2018-05-23T22:35:28.541Z,96681.02
2018-05-23T22:37:57.902Z,96660.39
2018-05-23T22:40:23.789Z,96677.40
2018-05-23T22:42:52.090Z,96676.83
2018-05-23T22:45:18.001Z,96675.98
2018-05-23T22:47:47.909Z,96669.78
2018-05-23T22:50:13.802Z,96669.23
2018-05-23T22:52:41.704Z,96673.95
2018-05-23T22:55:07.780Z,96672.61
2018-05-23T22:57:36.847Z,96675.83
2018-05-23T23:00:02.795Z,96679.07
2018-05-23T23:02:28.741Z,96677.30
2018-05-23T23:04:54.681Z,96681.16
2018-05-23T23:07:20.655Z,96683.13
2018-05-23T23:09:47.707Z,96689.97
2018-05-23T23:12:13.632Z,96685.98
2018-05-23T23:14:43.928Z,96685.05
2018-05-23T23:17:09.932Z,96689.52
2018-05-23T23:19:37.450Z,96686.61
2018-05-23T23:22:05.727Z,96690.09
2018-05-23T23:24:32.967Z,96683.30
2018-05-23T23:26:58.936Z,96677.26
2018-05-23T23:29:26.568Z,96676.02
2018-05-23T23:31:52.490Z,96675.75
2018-05-23T23:34:21.529Z,96674.70
2018-05-23T23:36:47.479Z,96669.96
2018-05-23T23:39:13.401Z,96668.92
2018-05-23T23:41:39.298Z,96668.55
2018-05-23T23:44:05.217Z,96672.96
2018-05-23T23:46:33.043Z,96662.25
2018-05-23T23:48:58.947Z,96665.45
2018-05-23T23:51:28.300Z,96672.30
2018-05-23T23:53:54.498Z,96672.50
2018-05-23T23:56:24.279Z,96674.58
2018-05-23T23:58:50.213Z,96675.19
